sensor_id;sensor_type;location;lat;lon;timestamp;P1;durP1;ratioP1;P2;durP2;ratioP2
68921;SDS011;55959;51.244;5.724;2022-09-09T00:01:37;0.75;;;0.65;;
68921;SDS011;55959;51.244;5.724;2022-09-09T00:07:07;0.80;;;0.80;;
68921;SDS011;55959;51.244;5.724;2022-09-09T00:15:29;1.42;;;1.00;;
68921;SDS011;55959;51.244;5.724;2022-09-09T00:21:38;2.47;;;0.90;;
68921;SDS011;55959;51.244;5.724;2022-09-09T00:25:02;1.23;;;1.08;;
68921;SDS011;55959;51.244;5.724;2022-09-09T00:27:11;1.13;;;0.82;;
68921;SDS011;55959;51.244;5.724;2022-09-09T00:32:54;2.28;;;0.93;;
68921;SDS011;55959;51.244;5.724;2022-09-09T00:35:37;1.23;;;0.90;;
68921;SDS011;55959;51.244;5.724;2022-09-09T00:38:10;1.77;;;1.00;;
68921;SDS011;55959;51.244;5.724;2022-09-09T00:49:15;1.30;;;1.03;;
68921;SDS011;55959;51.244;5.724;2022-09-09T00:58:13;2.13;;;0.90;;
68921;SDS011;55959;51.244;5.724;2022-09-09T01:00:43;2.80;;;0.80;;
68921;SDS011;55959;51.244;5.724;2022-09-09T01:03:22;0.97;;;0.70;;
68921;SDS011;55959;51.244;5.724;2022-09-09T01:12:01;2.13;;;0.93;;
68921;SDS011;55959;51.244;5.724;2022-09-09T01:14:51;1.27;;;1.00;;
68921;SDS011;55959;51.244;5.724;2022-09-09T01:17:30;1.10;;;0.80;;
68921;SDS011;55959;51.244;5.724;2022-09-09T01:23:00;3.00;;;1.20;;
68921;SDS011;55959;51.244;5.724;2022-09-09T01:26:23;2.07;;;1.20;;
68921;SDS011;55959;51.244;5.724;2022-09-09T01:29:08;1.53;;;1.10;;
68921;SDS011;55959;51.244;5.724;2022-09-09T01:31:40;1.57;;;1.00;;
68921;SDS011;55959;51.244;5.724;2022-09-09T01:34:10;0.83;;;0.80;;
68921;SDS011;55959;51.244;5.724;2022-09-09T01:36:39;3.40;;;1.00;;
68921;SDS011;55959;51.244;5.724;2022-09-09T01:39:25;1.57;;;0.87;;
68921;SDS011;55959;51.244;5.724;2022-09-09T01:41:52;1.07;;;0.90;;
68921;SDS011;55959;51.244;5.724;2022-09-09T01:44:20;2.73;;;0.70;;
68921;SDS011;55959;51.244;5.724;2022-09-09T01:46:46;1.97;;;1.03;;
68921;SDS011;55959;51.244;5.724;2022-09-09T01:49:12;1.50;;;1.00;;
68921;SDS011;55959;51.244;5.724;2022-09-09T01:51:38;0.80;;;0.80;;
68921;SDS011;55959;51.244;5.724;2022-09-09T01:54:06;1.98;;;1.00;;
68921;SDS011;55959;51.244;5.724;2022-09-09T02:07:51;1.90;;;0.90;;
68921;SDS011;55959;51.244;5.724;2022-09-09T02:10:30;0.80;;;0.63;;
68921;SDS011;55959;51.244;5.724;2022-09-09T02:13:21;2.30;;;0.90;;
68921;SDS011;55959;51.244;5.724;2022-09-09T02:16:04;1.70;;;0.90;;
68921;SDS011;55959;51.244;5.724;2022-09-09T02:21:07;1.47;;;0.87;;
68921;SDS011;55959;51.244;5.724;2022-09-09T02:23:35;0.93;;;0.60;;
68921;SDS011;55959;51.244;5.724;2022-09-09T02:26:04;2.20;;;1.00;;
68921;SDS011;55959;51.244;5.724;2022-09-09T02:28:32;2.73;;;1.00;;
68921;SDS011;55959;51.244;5.724;2022-09-09T02:31:01;5.47;;;1.00;;
68921;SDS011;55959;51.244;5.724;2022-09-09T02:33:28;1.63;;;0.70;;
68921;SDS011;55959;51.244;5.724;2022-09-09T02:36:02;1.27;;;0.77;;
68921;SDS011;55959;51.244;5.724;2022-09-09T02:38:33;1.03;;;0.70;;
68921;SDS011;55959;51.244;5.724;2022-09-09T02:41:04;2.10;;;0.70;;
68921;SDS011;55959;51.244;5.724;2022-09-09T02:43:34;4.03;;;0.90;;
68921;SDS011;55959;51.244;5.724;2022-09-09T02:46:08;1.60;;;0.90;;
68921;SDS011;55959;51.244;5.724;2022-09-09T02:49:06;1.00;;;0.70;;
68921;SDS011;55959;51.244;5.724;2022-09-09T02:57:11;1.30;;;0.83;;
68921;SDS011;55959;51.244;5.724;2022-09-09T02:59:43;2.20;;;0.80;;
68921;SDS011;55959;51.244;5.724;2022-09-09T03:02:10;2.53;;;0.87;;
68921;SDS011;55959;51.244;5.724;2022-09-09T03:04:38;2.73;;;0.90;;
68921;SDS011;55959;51.244;5.724;2022-09-09T03:07:04;2.53;;;0.90;;
68921;SDS011;55959;51.244;5.724;2022-09-09T03:09:31;2.13;;;0.87;;
68921;SDS011;55959;51.244;5.724;2022-09-09T03:11:59;1.63;;;0.90;;
68921;SDS011;55959;51.244;5.724;2022-09-09T03:14:25;2.30;;;0.80;;
68921;SDS011;55959;51.244;5.724;2022-09-09T03:16:51;1.60;;;0.60;;
68921;SDS011;55959;51.244;5.724;2022-09-09T03:19:17;2.03;;;0.87;;
68921;SDS011;55959;51.244;5.724;2022-09-09T03:21:44;3.10;;;1.03;;
68921;SDS011;55959;51.244;5.724;2022-09-09T03:24:11;1.83;;;0.90;;
68921;SDS011;55959;51.244;5.724;2022-09-09T03:26:37;0.80;;;0.60;;
68921;SDS011;55959;51.244;5.724;2022-09-09T03:29:04;1.17;;;0.70;;
68921;SDS011;55959;51.244;5.724;2022-09-09T03:31:33;1.37;;;1.00;;
68921;SDS011;55959;51.244;5.724;2022-09-09T03:34:00;1.77;;;0.90;;
68921;SDS011;55959;51.244;5.724;2022-09-09T03:36:26;3.17;;;1.10;;
68921;SDS011;55959;51.244;5.724;2022-09-09T03:38:53;1.07;;;0.80;;
68921;SDS011;55959;51.244;5.724;2022-09-09T03:41:20;1.27;;;0.80;;
68921;SDS011;55959;51.244;5.724;2022-09-09T03:43:53;2.70;;;0.77;;
68921;SDS011;55959;51.244;5.724;2022-09-09T03:46:22;2.57;;;1.00;;
68921;SDS011;55959;51.244;5.724;2022-09-09T03:48:50;2.43;;;1.00;;
68921;SDS011;55959;51.244;5.724;2022-09-09T03:51:17;2.47;;;0.77;;
68921;SDS011;55959;51.244;5.724;2022-09-09T03:53:44;0.97;;;0.60;;
68921;SDS011;55959;51.244;5.724;2022-09-09T03:56:09;2.50;;;0.80;;
68921;SDS011;55959;51.244;5.724;2022-09-09T03:58:38;1.00;;;0.80;;
68921;SDS011;55959;51.244;5.724;2022-09-09T04:01:05;2.53;;;0.80;;
68921;SDS011;55959;51.244;5.724;2022-09-09T04:03:38;2.23;;;0.90;;
68921;SDS011;55959;51.244;5.724;2022-09-09T04:06:05;2.20;;;1.03;;
68921;SDS011;55959;51.244;5.724;2022-09-09T04:08:34;1.77;;;1.00;;
68921;SDS011;55959;51.244;5.724;2022-09-09T04:11:01;2.63;;;1.00;;
68921;SDS011;55959;51.244;5.724;2022-09-09T04:13:29;1.77;;;0.90;;
68921;SDS011;55959;51.244;5.724;2022-09-09T04:15:56;2.20;;;0.93;;
68921;SDS011;55959;51.244;5.724;2022-09-09T04:18:24;1.73;;;0.97;;
68921;SDS011;55959;51.244;5.724;2022-09-09T04:20:51;3.17;;;0.90;;
68921;SDS011;55959;51.244;5.724;2022-09-09T04:23:19;2.23;;;1.00;;
68921;SDS011;55959;51.244;5.724;2022-09-09T04:25:46;3.03;;;1.07;;
68921;SDS011;55959;51.244;5.724;2022-09-09T04:28:14;1.77;;;0.90;;
68921;SDS011;55959;51.244;5.724;2022-09-09T04:30:42;3.30;;;1.27;;
68921;SDS011;55959;51.244;5.724;2022-09-09T04:33:09;2.70;;;1.00;;
68921;SDS011;55959;51.244;5.724;2022-09-09T04:35:35;1.73;;;0.93;;
68921;SDS011;55959;51.244;5.724;2022-09-09T04:38:04;1.73;;;1.00;;
68921;SDS011;55959;51.244;5.724;2022-09-09T04:40:32;2.50;;;1.10;;
68921;SDS011;55959;51.244;5.724;2022-09-09T04:42:59;2.90;;;1.07;;
68921;SDS011;55959;51.244;5.724;2022-09-09T04:45:27;2.33;;;1.00;;
68921;SDS011;55959;51.244;5.724;2022-09-09T04:47:53;4.27;;;1.37;;
68921;SDS011;55959;51.244;5.724;2022-09-09T04:50:19;2.20;;;1.13;;
68921;SDS011;55959;51.244;5.724;2022-09-09T04:52:44;2.63;;;1.17;;
68921;SDS011;55959;51.244;5.724;2022-09-09T04:55:10;3.07;;;1.20;;
68921;SDS011;55959;51.244;5.724;2022-09-09T04:57:37;3.00;;;1.30;;
68921;SDS011;55959;51.244;5.724;2022-09-09T05:00:04;2.00;;;1.10;;
68921;SDS011;55959;51.244;5.724;2022-09-09T05:02:30;2.50;;;1.13;;
68921;SDS011;55959;51.244;5.724;2022-09-09T05:04:57;2.43;;;1.03;;
68921;SDS011;55959;51.244;5.724;2022-09-09T05:07:23;2.20;;;1.20;;
68921;SDS011;55959;51.244;5.724;2022-09-09T05:09:51;3.30;;;1.23;;
68921;SDS011;55959;51.244;5.724;2022-09-09T05:12:16;3.03;;;1.17;;
68921;SDS011;55959;51.244;5.724;2022-09-09T05:14:43;2.67;;;1.10;;
68921;SDS011;55959;51.244;5.724;2022-09-09T05:17:09;1.93;;;0.83;;
68921;SDS011;55959;51.244;5.724;2022-09-09T05:19:35;2.20;;;0.83;;
68921;SDS011;55959;51.244;5.724;2022-09-09T05:22:01;3.07;;;1.40;;
68921;SDS011;55959;51.244;5.724;2022-09-09T05:24:27;2.60;;;1.33;;
68921;SDS011;55959;51.244;5.724;2022-09-09T05:26:54;2.17;;;1.00;;
68921;SDS011;55959;51.244;5.724;2022-09-09T05:29:23;2.97;;;1.13;;
68921;SDS011;55959;51.244;5.724;2022-09-09T05:31:48;2.75;;;1.30;;
68921;SDS011;55959;51.244;5.724;2022-09-09T05:34:14;2.60;;;1.07;;
68921;SDS011;55959;51.244;5.724;2022-09-09T05:36:40;2.40;;;1.03;;
68921;SDS011;55959;51.244;5.724;2022-09-09T05:39:05;1.73;;;0.90;;
68921;SDS011;55959;51.244;5.724;2022-09-09T05:41:31;2.87;;;1.17;;
68921;SDS011;55959;51.244;5.724;2022-09-09T05:43:57;3.47;;;1.30;;
68921;SDS011;55959;51.244;5.724;2022-09-09T05:46:26;1.77;;;1.07;;
68921;SDS011;55959;51.244;5.724;2022-09-09T05:48:52;1.30;;;0.90;;
68921;SDS011;55959;51.244;5.724;2022-09-09T05:51:20;3.40;;;1.03;;
68921;SDS011;55959;51.244;5.724;2022-09-09T05:53:49;5.17;;;1.43;;
68921;SDS011;55959;51.244;5.724;2022-09-09T05:56:23;1.53;;;0.83;;
68921;SDS011;55959;51.244;5.724;2022-09-09T05:58:51;2.38;;;1.08;;
68921;SDS011;55959;51.244;5.724;2022-09-09T06:01:25;3.47;;;1.10;;
68921;SDS011;55959;51.244;5.724;2022-09-09T06:03:54;2.43;;;1.13;;
68921;SDS011;55959;51.244;5.724;2022-09-09T06:06:21;2.83;;;1.20;;
68921;SDS011;55959;51.244;5.724;2022-09-09T06:08:51;2.10;;;1.07;;
68921;SDS011;55959;51.244;5.724;2022-09-09T06:11:20;2.63;;;1.07;;
68921;SDS011;55959;51.244;5.724;2022-09-09T06:13:49;1.70;;;0.80;;
68921;SDS011;55959;51.244;5.724;2022-09-09T06:16:20;3.28;;;1.02;;
68921;SDS011;55959;51.244;5.724;2022-09-09T06:18:52;2.92;;;0.85;;
68921;SDS011;55959;51.244;5.724;2022-09-09T06:21:23;2.67;;;1.07;;
68921;SDS011;55959;51.244;5.724;2022-09-09T06:23:55;2.23;;;1.10;;
68921;SDS011;55959;51.244;5.724;2022-09-09T06:26:22;3.33;;;1.03;;
68921;SDS011;55959;51.244;5.724;2022-09-09T06:28:55;2.83;;;0.93;;
68921;SDS011;55959;51.244;5.724;2022-09-09T06:31:23;2.50;;;1.10;;
68921;SDS011;55959;51.244;5.724;2022-09-09T06:33:55;3.23;;;1.20;;
68921;SDS011;55959;51.244;5.724;2022-09-09T06:38:53;3.50;;;1.23;;
68921;SDS011;55959;51.244;5.724;2022-09-09T06:41:20;3.50;;;1.43;;
68921;SDS011;55959;51.244;5.724;2022-09-09T06:43:50;4.25;;;1.33;;
68921;SDS011;55959;51.244;5.724;2022-09-09T06:46:19;4.57;;;1.10;;
68921;SDS011;55959;51.244;5.724;2022-09-09T06:48:54;3.53;;;1.00;;
68921;SDS011;55959;51.244;5.724;2022-09-09T06:51:21;2.60;;;1.00;;
68921;SDS011;55959;51.244;5.724;2022-09-09T06:53:52;2.70;;;0.90;;
68921;SDS011;55959;51.244;5.724;2022-09-09T06:56:24;3.10;;;0.80;;
68921;SDS011;55959;51.244;5.724;2022-09-09T06:58:59;4.53;;;1.30;;
68921;SDS011;55959;51.244;5.724;2022-09-09T07:01:30;2.80;;;1.00;;
68921;SDS011;55959;51.244;5.724;2022-09-09T07:03:58;3.20;;;1.00;;
68921;SDS011;55959;51.244;5.724;2022-09-09T07:06:26;3.67;;;1.15;;
68921;SDS011;55959;51.244;5.724;2022-09-09T07:08:58;2.63;;;1.00;;
68921;SDS011;55959;51.244;5.724;2022-09-09T07:11:46;3.30;;;0.83;;
68921;SDS011;55959;51.244;5.724;2022-09-09T07:14:15;1.47;;;0.70;;
68921;SDS011;55959;51.244;5.724;2022-09-09T07:16:42;2.70;;;1.00;;
68921;SDS011;55959;51.244;5.724;2022-09-09T07:19:10;5.63;;;1.03;;
68921;SDS011;55959;51.244;5.724;2022-09-09T07:21:36;2.90;;;1.00;;
68921;SDS011;55959;51.244;5.724;2022-09-09T07:24:02;3.73;;;1.10;;
68921;SDS011;55959;51.244;5.724;2022-09-09T07:26:32;3.25;;;0.95;;
68921;SDS011;55959;51.244;5.724;2022-09-09T07:28:58;2.15;;;1.00;;
68921;SDS011;55959;51.244;5.724;2022-09-09T07:31:26;3.53;;;1.13;;
68921;SDS011;55959;51.244;5.724;2022-09-09T07:33:55;3.15;;;1.20;;
68921;SDS011;55959;51.244;5.724;2022-09-09T07:36:22;2.92;;;0.90;;
68921;SDS011;55959;51.244;5.724;2022-09-09T07:38:58;1.70;;;0.90;;
68921;SDS011;55959;51.244;5.724;2022-09-09T07:41:32;2.60;;;0.80;;
68921;SDS011;55959;51.244;5.724;2022-09-09T07:44:04;2.30;;;1.10;;
68921;SDS011;55959;51.244;5.724;2022-09-09T07:46:42;4.38;;;0.82;;
68921;SDS011;55959;51.244;5.724;2022-09-09T07:49:10;2.33;;;0.90;;
68921;SDS011;55959;51.244;5.724;2022-09-09T07:51:40;2.23;;;0.90;;
68921;SDS011;55959;51.244;5.724;2022-09-09T07:54:10;2.43;;;0.90;;
68921;SDS011;55959;51.244;5.724;2022-09-09T07:56:38;3.13;;;0.93;;
68921;SDS011;55959;51.244;5.724;2022-09-09T07:59:04;3.08;;;0.90;;
68921;SDS011;55959;51.244;5.724;2022-09-09T08:01:35;4.75;;;1.17;;
68921;SDS011;55959;51.244;5.724;2022-09-09T08:04:05;2.90;;;1.10;;
68921;SDS011;55959;51.244;5.724;2022-09-09T08:06:38;1.53;;;0.70;;
68921;SDS011;55959;51.244;5.724;2022-09-09T08:09:05;2.75;;;0.80;;
68921;SDS011;55959;51.244;5.724;2022-09-09T08:11:32;2.25;;;0.80;;
68921;SDS011;55959;51.244;5.724;2022-09-09T08:13:59;2.63;;;0.80;;
68921;SDS011;55959;51.244;5.724;2022-09-09T08:16:26;1.80;;;0.80;;
68921;SDS011;55959;51.244;5.724;2022-09-09T08:18:55;3.00;;;0.82;;
68921;SDS011;55959;51.244;5.724;2022-09-09T08:21:22;2.33;;;0.93;;
68921;SDS011;55959;51.244;5.724;2022-09-09T08:23:53;3.15;;;0.90;;
68921;SDS011;55959;51.244;5.724;2022-09-09T08:26:24;2.35;;;1.08;;
68921;SDS011;55959;51.244;5.724;2022-09-09T08:28:53;3.60;;;1.08;;
68921;SDS011;55959;51.244;5.724;2022-09-09T08:31:28;3.60;;;1.13;;
68921;SDS011;55959;51.244;5.724;2022-09-09T08:33:58;3.90;;;0.90;;
68921;SDS011;55959;51.244;5.724;2022-09-09T08:36:26;1.67;;;1.00;;
68921;SDS011;55959;51.244;5.724;2022-09-09T08:38:56;2.17;;;0.80;;
68921;SDS011;55959;51.244;5.724;2022-09-09T08:50:35;3.97;;;0.82;;
68921;SDS011;55959;51.244;5.724;2022-09-09T08:58:27;3.55;;;1.10;;
68921;SDS011;55959;51.244;5.724;2022-09-09T09:06:25;0.95;;;0.63;;
68921;SDS011;55959;51.244;5.724;2022-09-09T09:11:54;2.47;;;0.88;;
68921;SDS011;55959;51.244;5.724;2022-09-09T09:14:29;1.33;;;0.80;;
68921;SDS011;55959;51.244;5.724;2022-09-09T09:19:40;2.88;;;0.93;;
68921;SDS011;55959;51.244;5.724;2022-09-09T09:22:18;4.20;;;0.85;;
68921;SDS011;55959;51.244;5.724;2022-09-09T09:30:00;2.92;;;0.90;;
68921;SDS011;55959;51.244;5.724;2022-09-09T09:32:36;2.53;;;0.80;;
68921;SDS011;55959;51.244;5.724;2022-09-09T09:35:09;1.90;;;0.80;;
68921;SDS011;55959;51.244;5.724;2022-09-09T09:37:39;2.95;;;1.00;;
68921;SDS011;55959;51.244;5.724;2022-09-09T09:42:38;3.03;;;1.10;;
68921;SDS011;55959;51.244;5.724;2022-09-09T09:48:11;3.17;;;0.70;;
68921;SDS011;55959;51.244;5.724;2022-09-09T09:50:51;2.55;;;0.68;;
68921;SDS011;55959;51.244;5.724;2022-09-09T09:53:36;2.47;;;1.00;;
68921;SDS011;55959;51.244;5.724;2022-09-09T09:56:04;2.95;;;0.88;;
68921;SDS011;55959;51.244;5.724;2022-09-09T09:58:38;3.10;;;0.90;;
68921;SDS011;55959;51.244;5.724;2022-09-09T10:01:49;1.95;;;0.90;;
68921;SDS011;55959;51.244;5.724;2022-09-09T10:04:16;3.67;;;0.85;;
68921;SDS011;55959;51.244;5.724;2022-09-09T10:06:48;1.40;;;0.60;;
68921;SDS011;55959;51.244;5.724;2022-09-09T10:09:33;2.63;;;0.93;;
68921;SDS011;55959;51.244;5.724;2022-09-09T10:12:20;4.70;;;0.85;;
68921;SDS011;55959;51.244;5.724;2022-09-09T10:15:15;2.97;;;0.80;;
68921;SDS011;55959;51.244;5.724;2022-09-09T10:23:21;2.08;;;0.88;;
68921;SDS011;55959;51.244;5.724;2022-09-09T10:26:17;2.72;;;0.90;;
68921;SDS011;55959;51.244;5.724;2022-09-09T10:32:22;2.63;;;0.80;;
68921;SDS011;55959;51.244;5.724;2022-09-09T10:46:09;1.52;;;0.50;;
68921;SDS011;55959;51.244;5.724;2022-09-09T10:49:07;1.83;;;0.52;;
68921;SDS011;55959;51.244;5.724;2022-09-09T10:51:40;1.20;;;0.52;;
68921;SDS011;55959;51.244;5.724;2022-09-09T10:55:02;2.95;;;0.88;;
68921;SDS011;55959;51.244;5.724;2022-09-09T10:57:40;1.58;;;0.65;;
68921;SDS011;55959;51.244;5.724;2022-09-09T11:00:22;1.58;;;0.70;;
68921;SDS011;55959;51.244;5.724;2022-09-09T11:03:20;1.25;;;0.75;;
68921;SDS011;55959;51.244;5.724;2022-09-09T11:08:28;1.45;;;0.70;;
68921;SDS011;55959;51.244;5.724;2022-09-09T11:11:03;2.35;;;0.70;;
68921;SDS011;55959;51.244;5.724;2022-09-09T11:14:15;1.40;;;0.85;;
68921;SDS011;55959;51.244;5.724;2022-09-09T11:16:53;2.03;;;0.73;;
68921;SDS011;55959;51.244;5.724;2022-09-09T11:22:08;1.75;;;1.02;;
68921;SDS011;55959;51.244;5.724;2022-09-09T11:25:00;1.95;;;0.70;;
68921;SDS011;55959;51.244;5.724;2022-09-09T11:37:07;2.45;;;0.82;;
68921;SDS011;55959;51.244;5.724;2022-09-09T11:40:19;2.08;;;0.70;;
68921;SDS011;55959;51.244;5.724;2022-09-09T11:42:48;1.33;;;0.80;;
68921;SDS011;55959;51.244;5.724;2022-09-09T11:45:22;2.15;;;0.88;;
68921;SDS011;55959;51.244;5.724;2022-09-09T11:47:56;3.20;;;0.90;;
68921;SDS011;55959;51.244;5.724;2022-09-09T11:52:50;1.20;;;0.70;;
68921;SDS011;55959;51.244;5.724;2022-09-09T11:55:48;2.10;;;0.70;;
68921;SDS011;55959;51.244;5.724;2022-09-09T11:58:28;1.98;;;0.85;;
68921;SDS011;55959;51.244;5.724;2022-09-09T12:01:16;3.55;;;1.10;;
68921;SDS011;55959;51.244;5.724;2022-09-09T12:04:46;2.55;;;1.10;;
68921;SDS011;55959;51.244;5.724;2022-09-09T12:06:51;3.45;;;1.00;;
68921;SDS011;55959;51.244;5.724;2022-09-09T12:10:02;2.17;;;0.77;;
68921;SDS011;55959;51.244;5.724;2022-09-09T12:12:35;1.85;;;0.90;;
68921;SDS011;55959;51.244;5.724;2022-09-09T12:17:36;1.35;;;0.70;;
68921;SDS011;55959;51.244;5.724;2022-09-09T12:26:16;1.75;;;0.90;;
68921;SDS011;55959;51.244;5.724;2022-09-09T12:32:04;1.35;;;0.60;;
68921;SDS011;55959;51.244;5.724;2022-09-09T12:34:42;3.35;;;1.17;;
68921;SDS011;55959;51.244;5.724;2022-09-09T12:37:20;2.65;;;0.73;;
68921;SDS011;55959;51.244;5.724;2022-09-09T12:39:56;4.35;;;0.85;;
68921;SDS011;55959;51.244;5.724;2022-09-09T12:42:25;2.25;;;0.88;;
68921;SDS011;55959;51.244;5.724;2022-09-09T12:44:59;1.52;;;0.80;;
68921;SDS011;55959;51.244;5.724;2022-09-09T12:47:42;2.30;;;0.80;;
68921;SDS011;55959;51.244;5.724;2022-09-09T12:50:30;1.65;;;0.77;;
68921;SDS011;55959;51.244;5.724;2022-09-09T12:56:02;1.48;;;1.00;;
68921;SDS011;55959;51.244;5.724;2022-09-09T12:58:33;1.30;;;0.70;;
68921;SDS011;55959;51.244;5.724;2022-09-09T13:01:02;1.50;;;0.80;;
68921;SDS011;55959;51.244;5.724;2022-09-09T13:03:30;1.38;;;0.90;;
68921;SDS011;55959;51.244;5.724;2022-09-09T13:05:58;2.03;;;0.80;;
68921;SDS011;55959;51.244;5.724;2022-09-09T13:08:37;2.30;;;0.93;;
68921;SDS011;55959;51.244;5.724;2022-09-09T13:11:04;2.55;;;0.80;;
68921;SDS011;55959;51.244;5.724;2022-09-09T13:13:39;2.08;;;0.75;;
68921;SDS011;55959;51.244;5.724;2022-09-09T13:16:07;1.85;;;0.60;;
68921;SDS011;55959;51.244;5.724;2022-09-09T13:18:46;1.67;;;0.80;;
68921;SDS011;55959;51.244;5.724;2022-09-09T13:21:12;2.05;;;0.85;;
68921;SDS011;55959;51.244;5.724;2022-09-09T13:23:39;1.63;;;0.60;;
68921;SDS011;55959;51.244;5.724;2022-09-09T13:26:24;1.67;;;0.60;;
68921;SDS011;55959;51.244;5.724;2022-09-09T13:28:53;1.90;;;0.60;;
68921;SDS011;55959;51.244;5.724;2022-09-09T13:31:24;1.67;;;0.73;;
68921;SDS011;55959;51.244;5.724;2022-09-09T13:33:54;1.45;;;0.82;;
68921;SDS011;55959;51.244;5.724;2022-09-09T13:36:30;1.42;;;0.60;;
68921;SDS011;55959;51.244;5.724;2022-09-09T13:38:59;1.88;;;0.90;;
68921;SDS011;55959;51.244;5.724;2022-09-09T13:41:35;1.48;;;0.63;;
68921;SDS011;55959;51.244;5.724;2022-09-09T13:44:22;2.10;;;0.63;;
68921;SDS011;55959;51.244;5.724;2022-09-09T13:49:43;1.83;;;0.63;;
68921;SDS011;55959;51.244;5.724;2022-09-09T13:54:39;1.58;;;0.80;;
68921;SDS011;55959;51.244;5.724;2022-09-09T13:57:11;1.02;;;0.60;;
68921;SDS011;55959;51.244;5.724;2022-09-09T13:59:50;1.42;;;0.70;;
68921;SDS011;55959;51.244;5.724;2022-09-09T14:02:18;1.67;;;0.60;;
68921;SDS011;55959;51.244;5.724;2022-09-09T14:04:44;1.58;;;0.80;;
68921;SDS011;55959;51.244;5.724;2022-09-09T14:07:13;2.08;;;0.82;;
68921;SDS011;55959;51.244;5.724;2022-09-09T14:09:42;3.15;;;0.80;;
68921;SDS011;55959;51.244;5.724;2022-09-09T14:12:11;1.38;;;0.70;;
68921;SDS011;55959;51.244;5.724;2022-09-09T14:14:40;1.52;;;0.77;;
68921;SDS011;55959;51.244;5.724;2022-09-09T14:17:07;2.17;;;0.73;;
68921;SDS011;55959;51.244;5.724;2022-09-09T14:19:33;1.80;;;0.55;;
68921;SDS011;55959;51.244;5.724;2022-09-09T14:22:00;2.58;;;0.95;;
68921;SDS011;55959;51.244;5.724;2022-09-09T14:24:26;2.20;;;0.70;;
68921;SDS011;55959;51.244;5.724;2022-09-09T14:26:53;2.50;;;0.80;;
68921;SDS011;55959;51.244;5.724;2022-09-09T14:29:19;1.95;;;1.00;;
68921;SDS011;55959;51.244;5.724;2022-09-09T14:31:44;2.13;;;0.70;;
68921;SDS011;55959;51.244;5.724;2022-09-09T14:34:10;2.28;;;0.98;;
68921;SDS011;55959;51.244;5.724;2022-09-09T14:36:37;1.85;;;0.73;;
68921;SDS011;55959;51.244;5.724;2022-09-09T14:39:03;2.38;;;0.90;;
68921;SDS011;55959;51.244;5.724;2022-09-09T14:41:29;1.02;;;0.55;;
68921;SDS011;55959;51.244;5.724;2022-09-09T14:43:56;1.27;;;0.80;;
68921;SDS011;55959;51.244;5.724;2022-09-09T14:46:22;3.53;;;0.73;;
68921;SDS011;55959;51.244;5.724;2022-09-09T14:48:49;3.58;;;0.80;;
68921;SDS011;55959;51.244;5.724;2022-09-09T14:51:24;0.85;;;0.40;;
68921;SDS011;55959;51.244;5.724;2022-09-09T14:53:52;0.77;;;0.50;;
68921;SDS011;55959;51.244;5.724;2022-09-09T14:56:27;2.22;;;0.75;;
68921;SDS011;55959;51.244;5.724;2022-09-09T14:58:56;1.95;;;0.93;;
68921;SDS011;55959;51.244;5.724;2022-09-09T15:01:25;2.28;;;0.60;;
68921;SDS011;55959;51.244;5.724;2022-09-09T15:03:54;1.67;;;0.80;;
68921;SDS011;55959;51.244;5.724;2022-09-09T15:06:23;1.10;;;0.70;;
68921;SDS011;55959;51.244;5.724;2022-09-09T15:08:52;1.33;;;0.50;;
68921;SDS011;55959;51.244;5.724;2022-09-09T15:11:19;1.02;;;0.60;;
68921;SDS011;55959;51.244;5.724;2022-09-09T15:13:46;2.50;;;0.80;;
68921;SDS011;55959;51.244;5.724;2022-09-09T15:16:15;2.58;;;0.70;;
68921;SDS011;55959;51.244;5.724;2022-09-09T15:18:43;2.33;;;0.50;;
68921;SDS011;55959;51.244;5.724;2022-09-09T15:21:10;1.25;;;0.57;;
68921;SDS011;55959;51.244;5.724;2022-09-09T15:23:38;0.85;;;0.50;;
68921;SDS011;55959;51.244;5.724;2022-09-09T15:26:04;0.65;;;0.43;;
68921;SDS011;55959;51.244;5.724;2022-09-09T15:28:34;2.15;;;0.60;;
68921;SDS011;55959;51.244;5.724;2022-09-09T15:31:07;2.53;;;0.88;;
68921;SDS011;55959;51.244;5.724;2022-09-09T15:33:38;2.88;;;0.93;;
68921;SDS011;55959;51.244;5.724;2022-09-09T15:38:46;1.30;;;0.60;;
68921;SDS011;55959;51.244;5.724;2022-09-09T15:41:13;1.42;;;0.40;;
68921;SDS011;55959;51.244;5.724;2022-09-09T15:43:46;1.42;;;0.85;;
68921;SDS011;55959;51.244;5.724;2022-09-09T15:51:38;2.03;;;0.60;;
68921;SDS011;55959;51.244;5.724;2022-09-09T15:54:09;1.10;;;0.60;;
68921;SDS011;55959;51.244;5.724;2022-09-09T15:56:37;1.27;;;0.60;;
68921;SDS011;55959;51.244;5.724;2022-09-09T15:59:03;0.88;;;0.60;;
68921;SDS011;55959;51.244;5.724;2022-09-09T16:01:29;1.35;;;0.38;;
68921;SDS011;55959;51.244;5.724;2022-09-09T16:03:57;2.15;;;0.70;;
68921;SDS011;55959;51.244;5.724;2022-09-09T16:06:25;1.08;;;0.60;;
68921;SDS011;55959;51.244;5.724;2022-09-09T16:08:53;1.17;;;0.55;;
68921;SDS011;55959;51.244;5.724;2022-09-09T16:11:30;0.80;;;0.50;;
68921;SDS011;55959;51.244;5.724;2022-09-09T16:14:00;1.73;;;0.47;;
68921;SDS011;55959;51.244;5.724;2022-09-09T16:16:27;1.85;;;0.50;;
68921;SDS011;55959;51.244;5.724;2022-09-09T16:18:55;1.13;;;0.50;;
68921;SDS011;55959;51.244;5.724;2022-09-09T16:21:29;1.67;;;0.60;;
68921;SDS011;55959;51.244;5.724;2022-09-09T16:23:58;1.10;;;0.68;;
68921;SDS011;55959;51.244;5.724;2022-09-09T16:26:26;0.80;;;0.57;;
68921;SDS011;55959;51.244;5.724;2022-09-09T16:28:53;1.30;;;0.50;;
68921;SDS011;55959;51.244;5.724;2022-09-09T16:31:22;1.58;;;0.70;;
68921;SDS011;55959;51.244;5.724;2022-09-09T16:33:49;2.00;;;0.95;;
68921;SDS011;55959;51.244;5.724;2022-09-09T16:36:16;1.70;;;0.65;;
68921;SDS011;55959;51.244;5.724;2022-09-09T16:38:47;1.75;;;0.63;;
68921;SDS011;55959;51.244;5.724;2022-09-09T16:41:13;1.30;;;0.70;;
68921;SDS011;55959;51.244;5.724;2022-09-09T16:43:39;1.25;;;0.50;;
68921;SDS011;55959;51.244;5.724;2022-09-09T16:46:16;1.05;;;0.50;;
68921;SDS011;55959;51.244;5.724;2022-09-09T16:48:44;1.58;;;0.82;;
68921;SDS011;55959;51.244;5.724;2022-09-09T16:51:22;1.98;;;1.13;;
68921;SDS011;55959;51.244;5.724;2022-09-09T16:53:52;2.22;;;0.80;;
68921;SDS011;55959;51.244;5.724;2022-09-09T16:56:23;2.35;;;1.40;;
68921;SDS011;55959;51.244;5.724;2022-09-09T16:58:52;3.67;;;1.08;;
68921;SDS011;55959;51.244;5.724;2022-09-09T17:01:28;1.88;;;0.73;;
68921;SDS011;55959;51.244;5.724;2022-09-09T17:03:59;2.67;;;0.80;;
68921;SDS011;55959;51.244;5.724;2022-09-09T17:06:27;1.33;;;0.90;;
68921;SDS011;55959;51.244;5.724;2022-09-09T17:08:55;0.93;;;0.73;;
68921;SDS011;55959;51.244;5.724;2022-09-09T17:11:33;2.00;;;1.10;;
68921;SDS011;55959;51.244;5.724;2022-09-09T17:14:00;1.52;;;0.80;;
68921;SDS011;55959;51.244;5.724;2022-09-09T17:16:27;1.42;;;0.32;;
68921;SDS011;55959;51.244;5.724;2022-09-09T17:18:55;0.85;;;0.50;;
68921;SDS011;55959;51.244;5.724;2022-09-09T17:21:24;1.25;;;0.40;;
68921;SDS011;55959;51.244;5.724;2022-09-09T17:23:51;1.90;;;0.52;;
68921;SDS011;55959;51.244;5.724;2022-09-09T17:26:19;0.75;;;0.40;;
68921;SDS011;55959;51.244;5.724;2022-09-09T17:28:47;0.70;;;0.50;;
68921;SDS011;55959;51.244;5.724;2022-09-09T17:31:14;1.50;;;0.50;;
68921;SDS011;55959;51.244;5.724;2022-09-09T17:33:46;0.73;;;0.35;;
68921;SDS011;55959;51.244;5.724;2022-09-09T17:36:17;1.00;;;0.60;;
68921;SDS011;55959;51.244;5.724;2022-09-09T17:38:50;1.08;;;0.47;;
68921;SDS011;55959;51.244;5.724;2022-09-09T17:41:23;0.88;;;0.50;;
68921;SDS011;55959;51.244;5.724;2022-09-09T17:43:53;1.45;;;0.43;;
68921;SDS011;55959;51.244;5.724;2022-09-09T17:46:21;1.42;;;0.47;;
68921;SDS011;55959;51.244;5.724;2022-09-09T17:48:49;0.77;;;0.50;;
68921;SDS011;55959;51.244;5.724;2022-09-09T17:51:21;1.10;;;0.70;;
68921;SDS011;55959;51.244;5.724;2022-09-09T17:53:50;0.80;;;0.50;;
68921;SDS011;55959;51.244;5.724;2022-09-09T17:56:20;0.75;;;0.50;;
68921;SDS011;55959;51.244;5.724;2022-09-09T17:58:51;2.28;;;0.43;;